Flugplatz Soest/Bad Sassendorf

Für EDLZ sind keine METAR/TAF Berichte vorhanden.
Es werden die Flugwettermeldungen vom Flugplatz Paderborn Lippstadt in 28 km Entfernung angezeigt.

Bericht für EDLP

vom 11.07. um 07:50 UTC

Wind 4 kt aus 350°

Sichtweite 10 km oder mehr

gering bewölkt in 1900 ft

Temperatur 14.0°C

Taupunkt 7.0°C

Luftfeuchtigkeit 63%

Luftdruck 1023 hPa

EDLP 110750Z 35004KT 260V040 9999 FEW019 14/07 Q1023

Prognose für EDLP

vom 11.07. um 05:00 UTC

Zwischen 06:00 UTC und 07:00 UTC

variable Windrichtung mit 3 kt

Sichtweite 10 km oder mehr

gering bewölkt in 4000 ft


Zwischen 07:00 und 10:00 UTC übergehend zu

Wind 5 kt aus 290°

Sichtweite 10 km oder mehr

gering bewölkt in 4000 ft


Zwischen 19:00 und 22:00 UTC übergehend zu

variable Windrichtung mit 3 kt

Sichtweite 10 km oder mehr

gering bewölkt in 4000 ft


Am 12.07. zwischen 02:00 UTC und 05:00 UTC zeitweise

Sichtweite 4000 m

feuchter Dunst


Am 12.07. zwischen 02:00 UTC und 06:00 UTC zeitweise mit einer Wahrscheinlichkeit von 30%

Sichtweite 2500 m

feuchter Dunst

aufgebrochene Bewölkung in 700 ft

TAF EDLP 110500Z 1106/1206 VRB03KT 9999 FEW040 BECMG 1107/1110 29005KT BECMG 1119/1122 VRB03KT TEMPO 1202/1205 4000 BR PROB30 TEMPO 1202/1206 2500 BR BKN007
Impressum